sensor_id;sensor_type;location;lat;lon;timestamp;temperature;humidity
72762;SHT30;60886;55.034;73.150;2023-02-28T00:02:10;-2.41;86.87
72762;SHT30;60886;55.034;73.150;2023-02-28T00:05:14;-2.37;86.64
72762;SHT30;60886;55.034;73.150;2023-02-28T00:08:26;-2.40;86.51
72762;SHT30;60886;55.034;73.150;2023-02-28T00:11:32;-2.41;86.42
72762;SHT30;60886;55.034;73.150;2023-02-28T00:14:34;-2.40;86.48
72762;SHT30;60886;55.034;73.150;2023-02-28T00:17:36;-2.40;86.56
72762;SHT30;60886;55.034;73.150;2023-02-28T00:20:48;-2.42;86.79
72762;SHT30;60886;55.034;73.150;2023-02-28T00:24:01;-2.38;87.27
72762;SHT30;60886;55.034;73.150;2023-02-28T00:27:14;-2.40;87.00
72762;SHT30;60886;55.034;73.150;2023-02-28T00:30:25;-2.44;87.10
72762;SHT30;60886;55.034;73.150;2023-02-28T00:33:32;-2.41;87.26
72762;SHT30;60886;55.034;73.150;2023-02-28T00:36:39;-2.41;87.11
72762;SHT30;60886;55.034;73.150;2023-02-28T00:39:41;-2.36;87.29
72762;SHT30;60886;55.034;73.150;2023-02-28T00:42:43;-2.36;86.98
72762;SHT30;60886;55.034;73.150;2023-02-28T00:45:52;-2.34;86.89
72762;SHT30;60886;55.034;73.150;2023-02-28T00:48:54;-2.34;87.06
72762;SHT30;60886;55.034;73.150;2023-02-28T00:52:10;-2.34;86.63
72762;SHT30;60886;55.034;73.150;2023-02-28T00:55:12;-2.31;86.93
72762;SHT30;60886;55.034;73.150;2023-02-28T00:58:19;-2.33;86.52
72762;SHT30;60886;55.034;73.150;2023-02-28T01:01:25;-2.28;86.56
72762;SHT30;60886;55.034;73.150;2023-02-28T01:04:36;-2.26;86.25
72762;SHT30;60886;55.034;73.150;2023-02-28T01:07:38;-2.28;86.00
72762;SHT30;60886;55.034;73.150;2023-02-28T01:10:40;-2.28;85.74
72762;SHT30;60886;55.034;73.150;2023-02-28T01:13:43;-2.24;85.98
72762;SHT30;60886;55.034;73.150;2023-02-28T01:16:46;-2.20;86.16
72762;SHT30;60886;55.034;73.150;2023-02-28T01:19:54;-2.18;85.63
72762;SHT30;60886;55.034;73.150;2023-02-28T01:22:59;-2.18;85.92
72762;SHT30;60886;55.034;73.150;2023-02-28T01:26:10;-2.23;85.35
72762;SHT30;60886;55.034;73.150;2023-02-28T01:29:15;-2.18;85.54
72762;SHT30;60886;55.034;73.150;2023-02-28T01:32:20;-2.13;86.27
72762;SHT30;60886;55.034;73.150;2023-02-28T01:35:22;-2.15;85.55
72762;SHT30;60886;55.034;73.150;2023-02-28T01:38:23;-2.13;85.78
72762;SHT30;60886;55.034;73.150;2023-02-28T01:41:35;-2.13;85.33
72762;SHT30;60886;55.034;73.150;2023-02-28T01:48:15;-2.10;85.51
72762;SHT30;60886;55.034;73.150;2023-02-28T01:51:22;-2.11;85.11
72762;SHT30;60886;55.034;73.150;2023-02-28T01:54:30;-2.08;85.27
72762;SHT30;60886;55.034;73.150;2023-02-28T01:57:35;-2.14;84.36
72762;SHT30;60886;55.034;73.150;2023-02-28T02:00:38;-2.18;84.54
72762;SHT30;60886;55.034;73.150;2023-02-28T02:03:41;-2.17;84.55
72762;SHT30;60886;55.034;73.150;2023-02-28T02:06:56;-2.20;84.54
72762;SHT30;60886;55.034;73.150;2023-02-28T02:24:32;-2.40;84.44
72762;SHT30;60886;55.034;73.150;2023-02-28T02:44:27;-2.47;85.79
72762;SHT30;60886;55.034;73.150;2023-02-28T02:47:31;-2.49;85.84
72762;SHT30;60886;55.034;73.150;2023-02-28T02:50:41;-2.47;85.57
72762;SHT30;60886;55.034;73.150;2023-02-28T02:54:09;-2.34;86.04
72762;SHT30;60886;55.034;73.150;2023-02-28T02:57:45;-2.23;85.45
72762;SHT30;60886;55.034;73.150;2023-02-28T03:00:48;-2.23;84.72
72762;SHT30;60886;55.034;73.150;2023-02-28T03:03:50;-2.17;84.88
72762;SHT30;60886;55.034;73.150;2023-02-28T03:06:51;-2.15;84.28
72762;SHT30;60886;55.034;73.150;2023-02-28T03:09:57;-2.01;84.46
72762;SHT30;60886;55.034;73.150;2023-02-28T03:27:23;-2.31;84.30
72762;SHT30;60886;55.034;73.150;2023-02-28T03:30:52;-2.30;84.94
72762;SHT30;60886;55.034;73.150;2023-02-28T03:34:05;-2.27;85.39
72762;SHT30;60886;55.034;73.150;2023-02-28T03:37:15;-2.20;85.63
72762;SHT30;60886;55.034;73.150;2023-02-28T03:40:20;-2.10;85.36
72762;SHT30;60886;55.034;73.150;2023-02-28T03:43:28;-2.06;84.90
72762;SHT30;60886;55.034;73.150;2023-02-28T03:46:34;-2.13;84.02
72762;SHT30;60886;55.034;73.150;2023-02-28T03:49:54;-2.17;84.97
72762;SHT30;60886;55.034;73.150;2023-02-28T03:53:02;-2.08;84.71
72762;SHT30;60886;55.034;73.150;2023-02-28T03:59:30;-1.89;84.45
72762;SHT30;60886;55.034;73.150;2023-02-28T04:02:34;-1.69;84.41
72762;SHT30;60886;55.034;73.150;2023-02-28T04:05:47;-1.77;83.03
72762;SHT30;60886;55.034;73.150;2023-02-28T04:09:01;-1.69;83.00
72762;SHT30;60886;55.034;73.150;2023-02-28T04:12:10;-1.60;83.21
72762;SHT30;60886;55.034;73.150;2023-02-28T04:15:12;-1.51;82.69
72762;SHT30;60886;55.034;73.150;2023-02-28T04:18:19;-1.45;82.45
72762;SHT30;60886;55.034;73.150;2023-02-28T04:21:25;-1.39;82.11
72762;SHT30;60886;55.034;73.150;2023-02-28T04:24:27;-1.43;81.43
72762;SHT30;60886;55.034;73.150;2023-02-28T04:27:36;-1.46;81.38
72762;SHT30;60886;55.034;73.150;2023-02-28T04:30:37;-1.39;81.60
72762;SHT30;60886;55.034;73.150;2023-02-28T04:33:44;-1.29;81.85
72762;SHT30;60886;55.034;73.150;2023-02-28T04:36:46;-1.24;81.51
72762;SHT30;60886;55.034;73.150;2023-02-28T04:39:50;-1.21;80.95
72762;SHT30;60886;55.034;73.150;2023-02-28T04:42:51;-1.12;80.67
72762;SHT30;60886;55.034;73.150;2023-02-28T04:45:53;-1.21;80.17
72762;SHT30;60886;55.034;73.150;2023-02-28T04:48:57;-1.13;80.43
72762;SHT30;60886;55.034;73.150;2023-02-28T04:51:59;-1.05;80.14
72762;SHT30;60886;55.034;73.150;2023-02-28T04:55:00;-1.07;80.07
72762;SHT30;60886;55.034;73.150;2023-02-28T04:58:04;-1.04;79.61
72762;SHT30;60886;55.034;73.150;2023-02-28T05:01:21;-0.90;79.66
72762;SHT30;60886;55.034;73.150;2023-02-28T05:04:24;-0.85;79.32
72762;SHT30;60886;55.034;73.150;2023-02-28T05:07:25;-0.66;80.74
72762;SHT30;60886;55.034;73.150;2023-02-28T05:10:26;-0.71;78.61
72762;SHT30;60886;55.034;73.150;2023-02-28T05:13:28;-0.70;78.98
72762;SHT30;60886;55.034;73.150;2023-02-28T05:16:34;-0.80;78.84
72762;SHT30;60886;55.034;73.150;2023-02-28T05:19:36;-0.81;79.34
72762;SHT30;60886;55.034;73.150;2023-02-28T05:22:37;-0.91;78.93
72762;SHT30;60886;55.034;73.150;2023-02-28T05:25:39;-0.87;79.31
72762;SHT30;60886;55.034;73.150;2023-02-28T05:28:51;-0.83;79.22
72762;SHT30;60886;55.034;73.150;2023-02-28T05:31:52;-0.76;78.10
72762;SHT30;60886;55.034;73.150;2023-02-28T05:34:54;-1.13;80.16
72762;SHT30;60886;55.034;73.150;2023-02-28T05:37:55;-1.09;80.19
72762;SHT30;60886;55.034;73.150;2023-02-28T05:40:57;-0.97;80.37
72762;SHT30;60886;55.034;73.150;2023-02-28T05:43:58;-0.90;79.26
72762;SHT30;60886;55.034;73.150;2023-02-28T05:47:10;-0.81;79.95
72762;SHT30;60886;55.034;73.150;2023-02-28T05:50:19;-1.09;79.55
72762;SHT30;60886;55.034;73.150;2023-02-28T05:53:26;-1.31;80.75
72762;SHT30;60886;55.034;73.150;2023-02-28T05:56:28;-1.28;81.59
72762;SHT30;60886;55.034;73.150;2023-02-28T05:59:29;-1.12;81.81
72762;SHT30;60886;55.034;73.150;2023-02-28T06:02:37;-1.04;81.64
72762;SHT30;60886;55.034;73.150;2023-02-28T06:05:39;-1.19;80.20
72762;SHT30;60886;55.034;73.150;2023-02-28T06:08:45;-0.91;80.74
72762;SHT30;60886;55.034;73.150;2023-02-28T06:11:51;-0.80;79.06
72762;SHT30;60886;55.034;73.150;2023-02-28T06:15:03;-0.80;79.48
72762;SHT30;60886;55.034;73.150;2023-02-28T06:18:05;-0.60;78.79
72762;SHT30;60886;55.034;73.150;2023-02-28T06:21:06;-0.78;78.64
72762;SHT30;60886;55.034;73.150;2023-02-28T06:24:10;-0.83;79.38
72762;SHT30;60886;55.034;73.150;2023-02-28T06:27:11;-0.74;80.97
72762;SHT30;60886;55.034;73.150;2023-02-28T06:30:23;-0.77;81.12
72762;SHT30;60886;55.034;73.150;2023-02-28T06:33:27;-0.58;81.37
72762;SHT30;60886;55.034;73.150;2023-02-28T06:36:28;-0.50;80.09
72762;SHT30;60886;55.034;73.150;2023-02-28T06:39:31;-0.53;79.23
72762;SHT30;60886;55.034;73.150;2023-02-28T06:42:32;-0.63;81.60
72762;SHT30;60886;55.034;73.150;2023-02-28T06:45:43;-0.77;80.52
72762;SHT30;60886;55.034;73.150;2023-02-28T06:48:54;-0.81;83.67
72762;SHT30;60886;55.034;73.150;2023-02-28T06:51:55;-0.63;84.06
72762;SHT30;60886;55.034;73.150;2023-02-28T06:54:57;-0.53;82.50
72762;SHT30;60886;55.034;73.150;2023-02-28T06:58:01;-0.58;81.18
72762;SHT30;60886;55.034;73.150;2023-02-28T07:01:03;-0.50;80.70
72762;SHT30;60886;55.034;73.150;2023-02-28T07:04:05;-0.43;79.74
72762;SHT30;60886;55.034;73.150;2023-02-28T07:07:10;-0.36;79.48
72762;SHT30;60886;55.034;73.150;2023-02-28T07:10:12;-0.33;78.61
72762;SHT30;60886;55.034;73.150;2023-02-28T07:13:19;-0.49;79.28
72762;SHT30;60886;55.034;73.150;2023-02-28T07:16:24;-0.57;80.99
72762;SHT30;60886;55.034;73.150;2023-02-28T07:19:25;-0.52;81.28
72762;SHT30;60886;55.034;73.150;2023-02-28T07:22:27;-0.43;81.00
72762;SHT30;60886;55.034;73.150;2023-02-28T07:25:39;-0.53;79.64
72762;SHT30;60886;55.034;73.150;2023-02-28T07:28:42;-0.63;79.55
72762;SHT30;60886;55.034;73.150;2023-02-28T07:31:53;-0.60;79.28
72762;SHT30;60886;55.034;73.150;2023-02-28T07:34:54;-0.57;79.70
72762;SHT30;60886;55.034;73.150;2023-02-28T07:37:59;-0.54;79.07
72762;SHT30;60886;55.034;73.150;2023-02-28T07:41:01;-0.47;79.74
72762;SHT30;60886;55.034;73.150;2023-02-28T07:44:06;-0.41;78.37
72762;SHT30;60886;55.034;73.150;2023-02-28T07:47:10;-0.49;78.64
72762;SHT30;60886;55.034;73.150;2023-02-28T07:50:14;-0.50;78.52
72762;SHT30;60886;55.034;73.150;2023-02-28T07:53:15;-0.50;78.96
72762;SHT30;60886;55.034;73.150;2023-02-28T07:56:19;-0.46;78.62
72762;SHT30;60886;55.034;73.150;2023-02-28T07:59:22;-0.44;78.50
72762;SHT30;60886;55.034;73.150;2023-02-28T08:02:23;-0.50;79.83
72762;SHT30;60886;55.034;73.150;2023-02-28T08:05:25;-0.50;79.06
72762;SHT30;60886;55.034;73.150;2023-02-28T08:08:26;-0.47;78.30
72762;SHT30;60886;55.034;73.150;2023-02-28T08:11:42;-0.63;79.98
72762;SHT30;60886;55.034;73.150;2023-02-28T08:14:48;-0.71;80.00
72762;SHT30;60886;55.034;73.150;2023-02-28T08:17:50;-0.63;79.74
72762;SHT30;60886;55.034;73.150;2023-02-28T08:20:51;-0.61;80.69
72762;SHT30;60886;55.034;73.150;2023-02-28T08:23:53;-0.44;80.66
72762;SHT30;60886;55.034;73.150;2023-02-28T08:26:55;-0.41;79.29
72762;SHT30;60886;55.034;73.150;2023-02-28T08:29:56;-0.50;80.33
72762;SHT30;60886;55.034;73.150;2023-02-28T08:33:03;-0.78;81.37
72762;SHT30;60886;55.034;73.150;2023-02-28T08:36:05;-0.73;83.53
72762;SHT30;60886;55.034;73.150;2023-02-28T08:39:16;-0.66;82.36
72762;SHT30;60886;55.034;73.150;2023-02-28T08:42:18;-0.68;81.18
72762;SHT30;60886;55.034;73.150;2023-02-28T08:45:20;-0.71;81.19
72762;SHT30;60886;55.034;73.150;2023-02-28T08:48:28;-0.74;81.53
72762;SHT30;60886;55.034;73.150;2023-02-28T08:51:30;-0.60;80.97
72762;SHT30;60886;55.034;73.150;2023-02-28T08:54:32;-0.61;80.07
72762;SHT30;60886;55.034;73.150;2023-02-28T08:57:35;-0.50;80.84
72762;SHT30;60886;55.034;73.150;2023-02-28T09:00:36;-0.54;80.32
72762;SHT30;60886;55.034;73.150;2023-02-28T09:03:38;-0.41;80.06
72762;SHT30;60886;55.034;73.150;2023-02-28T09:06:39;-0.56;80.09
72762;SHT30;60886;55.034;73.150;2023-02-28T09:09:41;-0.50;81.28
72762;SHT30;60886;55.034;73.150;2023-02-28T09:13:03;-0.44;80.03
72762;SHT30;60886;55.034;73.150;2023-02-28T09:16:07;-0.43;81.08
72762;SHT30;60886;55.034;73.150;2023-02-28T09:19:11;-0.34;79.15
72762;SHT30;60886;55.034;73.150;2023-02-28T09:22:13;-0.36;79.87
72762;SHT30;60886;55.034;73.150;2023-02-28T09:25:14;-0.37;79.18
72762;SHT30;60886;55.034;73.150;2023-02-28T09:28:25;-0.32;79.69
72762;SHT30;60886;55.034;73.150;2023-02-28T09:31:27;-0.29;79.14
72762;SHT30;60886;55.034;73.150;2023-02-28T09:34:39;-0.33;79.20
72762;SHT30;60886;55.034;73.150;2023-02-28T09:37:40;-0.36;79.27
72762;SHT30;60886;55.034;73.150;2023-02-28T09:40:55;-0.27;80.20
72762;SHT30;60886;55.034;73.150;2023-02-28T09:43:59;-0.30;79.75
72762;SHT30;60886;55.034;73.150;2023-02-28T09:50:48;-0.34;81.29
72762;SHT30;60886;55.034;73.150;2023-02-28T09:53:55;-0.19;81.67
72762;SHT30;60886;55.034;73.150;2023-02-28T10:03:55;-0.05;80.47
72762;SHT30;60886;55.034;73.150;2023-02-28T10:06:58;-0.09;80.58
72762;SHT30;60886;55.034;73.150;2023-02-28T10:10:02;-0.25;81.93
72762;SHT30;60886;55.034;73.150;2023-02-28T10:13:31;-0.17;82.43
72762;SHT30;60886;55.034;73.150;2023-02-28T10:16:46;-0.15;82.12
72762;SHT30;60886;55.034;73.150;2023-02-28T10:20:19;-0.06;81.50
72762;SHT30;60886;55.034;73.150;2023-02-28T10:23:32;-0.01;81.62
72762;SHT30;60886;55.034;73.150;2023-02-28T10:26:36;0.11;81.13
72762;SHT30;60886;55.034;73.150;2023-02-28T10:29:45;0.19;81.37
72762;SHT30;60886;55.034;73.150;2023-02-28T10:32:51;0.22;80.78
72762;SHT30;60886;55.034;73.150;2023-02-28T10:35:55;0.26;80.54
72762;SHT30;60886;55.034;73.150;2023-02-28T10:39:35;0.26;80.47
72762;SHT30;60886;55.034;73.150;2023-02-28T10:42:40;0.30;80.97
72762;SHT30;60886;55.034;73.150;2023-02-28T10:45:57;0.30;80.69
72762;SHT30;60886;55.034;73.150;2023-02-28T10:49:03;0.44;80.46
72762;SHT30;60886;55.034;73.150;2023-02-28T10:52:10;0.39;80.58
72762;SHT30;60886;55.034;73.150;2023-02-28T10:55:25;0.53;81.72
72762;SHT30;60886;55.034;73.150;2023-02-28T11:01:53;0.45;81.43
72762;SHT30;60886;55.034;73.150;2023-02-28T11:04:55;0.41;81.04
72762;SHT30;60886;55.034;73.150;2023-02-28T11:08:14;0.41;81.96
72762;SHT30;60886;55.034;73.150;2023-02-28T11:11:30;0.44;81.28
72762;SHT30;60886;55.034;73.150;2023-02-28T11:14:49;0.52;81.17
72762;SHT30;60886;55.034;73.150;2023-02-28T11:18:00;0.58;81.50
72762;SHT30;60886;55.034;73.150;2023-02-28T11:21:03;0.65;80.74
72762;SHT30;60886;55.034;73.150;2023-02-28T11:24:15;0.55;80.50
72762;SHT30;60886;55.034;73.150;2023-02-28T11:34:26;0.45;80.85
72762;SHT30;60886;55.034;73.150;2023-02-28T11:37:34;0.49;81.69
72762;SHT30;60886;55.034;73.150;2023-02-28T11:41:05;0.44;81.08
72762;SHT30;60886;55.034;73.150;2023-02-28T11:47:48;0.46;81.14
72762;SHT30;60886;55.034;73.150;2023-02-28T11:51:08;0.42;80.72
72762;SHT30;60886;55.034;73.150;2023-02-28T12:00:56;0.60;80.29
72762;SHT30;60886;55.034;73.150;2023-02-28T12:04:11;0.53;79.42
72762;SHT30;60886;55.034;73.150;2023-02-28T12:07:35;0.52;79.82
72762;SHT30;60886;55.034;73.150;2023-02-28T12:11:04;0.46;79.72
72762;SHT30;60886;55.034;73.150;2023-02-28T12:28:02;0.37;80.31
72762;SHT30;60886;55.034;73.150;2023-02-28T12:31:17;0.37;80.51
72762;SHT30;60886;55.034;73.150;2023-02-28T12:34:24;0.41;80.12
72762;SHT30;60886;55.034;73.150;2023-02-28T12:41:27;0.19;81.61
72762;SHT30;60886;55.034;73.150;2023-02-28T12:45:04;0.19;80.56
72762;SHT30;60886;55.034;73.150;2023-02-28T12:48:08;0.04;80.77
72762;SHT30;60886;55.034;73.150;2023-02-28T12:51:21;0.05;81.25
72762;SHT30;60886;55.034;73.150;2023-02-28T12:57:58;0.12;80.81
72762;SHT30;60886;55.034;73.150;2023-02-28T13:01:17;0.02;80.90
72762;SHT30;60886;55.034;73.150;2023-02-28T13:04:42;-0.03;80.99
72762;SHT30;60886;55.034;73.150;2023-02-28T13:11:33;0.08;81.22
72762;SHT30;60886;55.034;73.150;2023-02-28T13:14:39;-0.02;80.65
72762;SHT30;60886;55.034;73.150;2023-02-28T13:17:40;-0.05;80.92
72762;SHT30;60886;55.034;73.150;2023-02-28T13:20:47;-0.07;80.75
72762;SHT30;60886;55.034;73.150;2023-02-28T13:23:58;-0.12;80.74
72762;SHT30;60886;55.034;73.150;2023-02-28T13:40:33;-0.02;80.95
72762;SHT30;60886;55.034;73.150;2023-02-28T13:44:22;0.02;80.79
72762;SHT30;60886;55.034;73.150;2023-02-28T13:47:39;0.04;80.34
72762;SHT30;60886;55.034;73.150;2023-02-28T13:50:42;-0.01;81.04
72762;SHT30;60886;55.034;73.150;2023-02-28T13:54:02;-0.02;81.34
72762;SHT30;60886;55.034;73.150;2023-02-28T14:04:43;0.11;80.91
72762;SHT30;60886;55.034;73.150;2023-02-28T14:07:50;0.11;81.69
72762;SHT30;60886;55.034;73.150;2023-02-28T14:11:06;0.17;80.64
72762;SHT30;60886;55.034;73.150;2023-02-28T14:14:09;0.18;80.91
72762;SHT30;60886;55.034;73.150;2023-02-28T14:17:40;0.18;80.85
72762;SHT30;60886;55.034;73.150;2023-02-28T14:20:43;0.21;80.65
72762;SHT30;60886;55.034;73.150;2023-02-28T14:24:22;0.17;80.58
72762;SHT30;60886;55.034;73.150;2023-02-28T14:27:35;0.24;80.70
72762;SHT30;60886;55.034;73.150;2023-02-28T14:31:00;0.09;80.75
72762;SHT30;60886;55.034;73.150;2023-02-28T14:37:15;0.17;80.69
72762;SHT30;60886;55.034;73.150;2023-02-28T14:40:25;0.11;81.02
72762;SHT30;60886;55.034;73.150;2023-02-28T14:43:28;0.18;80.88
72762;SHT30;60886;55.034;73.150;2023-02-28T14:46:38;0.21;80.55
72762;SHT30;60886;55.034;73.150;2023-02-28T14:49:44;0.15;80.58
72762;SHT30;60886;55.034;73.150;2023-02-28T14:52:53;0.11;80.84
72762;SHT30;60886;55.034;73.150;2023-02-28T14:55:55;0.11;81.32
72762;SHT30;60886;55.034;73.150;2023-02-28T14:58:57;0.02;81.45
72762;SHT30;60886;55.034;73.150;2023-02-28T15:02:21;0.08;81.59
72762;SHT30;60886;55.034;73.150;2023-02-28T15:05:32;0.09;81.20
72762;SHT30;60886;55.034;73.150;2023-02-28T15:08:34;0.15;81.08
72762;SHT30;60886;55.034;73.150;2023-02-28T15:11:39;0.24;81.45
72762;SHT30;60886;55.034;73.150;2023-02-28T15:14:43;0.29;81.68
72762;SHT30;60886;55.034;73.150;2023-02-28T15:17:48;0.22;80.77
72762;SHT30;60886;55.034;73.150;2023-02-28T15:20:51;0.19;80.95
72762;SHT30;60886;55.034;73.150;2023-02-28T15:27:29;0.19;81.16
72762;SHT30;60886;55.034;73.150;2023-02-28T15:30:33;0.29;81.47
72762;SHT30;60886;55.034;73.150;2023-02-28T15:33:35;0.29;81.01
72762;SHT30;60886;55.034;73.150;2023-02-28T15:36:36;0.28;80.70
72762;SHT30;60886;55.034;73.150;2023-02-28T15:39:43;0.32;81.32
72762;SHT30;60886;55.034;73.150;2023-02-28T15:43:17;0.32;80.58
72762;SHT30;60886;55.034;73.150;2023-02-28T15:46:19;0.22;80.98
72762;SHT30;60886;55.034;73.150;2023-02-28T15:49:21;0.19;81.12
72762;SHT30;60886;55.034;73.150;2023-02-28T15:55:43;0.33;81.15
72762;SHT30;60886;55.034;73.150;2023-02-28T15:58:45;0.33;81.27
72762;SHT30;60886;55.034;73.150;2023-02-28T16:02:19;0.28;81.14
72762;SHT30;60886;55.034;73.150;2023-02-28T16:05:30;0.30;80.86
72762;SHT30;60886;55.034;73.150;2023-02-28T16:08:33;0.32;81.19
72762;SHT30;60886;55.034;73.150;2023-02-28T16:11:38;0.26;80.94
72762;SHT30;60886;55.034;73.150;2023-02-28T16:14:52;0.32;81.26
72762;SHT30;60886;55.034;73.150;2023-02-28T16:17:56;0.37;81.08
72762;SHT30;60886;55.034;73.150;2023-02-28T16:21:08;0.37;81.40
72762;SHT30;60886;55.034;73.150;2023-02-28T16:24:11;0.42;80.94
72762;SHT30;60886;55.034;73.150;2023-02-28T16:27:19;0.44;81.04
72762;SHT30;60886;55.034;73.150;2023-02-28T16:30:25;0.44;80.74
72762;SHT30;60886;55.034;73.150;2023-02-28T16:33:27;0.50;81.34
72762;SHT30;60886;55.034;73.150;2023-02-28T16:36:30;0.48;80.45
72762;SHT30;60886;55.034;73.150;2023-02-28T16:39:41;0.52;81.06
72762;SHT30;60886;55.034;73.150;2023-02-28T16:42:45;0.46;80.93
72762;SHT30;60886;55.034;73.150;2023-02-28T16:45:47;0.35;81.39
72762;SHT30;60886;55.034;73.150;2023-02-28T16:48:59;0.32;81.85
72762;SHT30;60886;55.034;73.150;2023-02-28T16:52:12;0.26;82.04
72762;SHT30;60886;55.034;73.150;2023-02-28T16:55:19;0.26;82.06
72762;SHT30;60886;55.034;73.150;2023-02-28T16:58:30;0.37;82.19
72762;SHT30;60886;55.034;73.150;2023-02-28T17:01:34;0.32;82.04
72762;SHT30;60886;55.034;73.150;2023-02-28T17:04:39;0.39;82.14
72762;SHT30;60886;55.034;73.150;2023-02-28T17:07:42;0.33;82.31
72762;SHT30;60886;55.034;73.150;2023-02-28T17:10:54;0.26;82.67
72762;SHT30;60886;55.034;73.150;2023-02-28T17:13:56;0.18;82.79
72762;SHT30;60886;55.034;73.150;2023-02-28T17:16:58;0.22;83.31
72762;SHT30;60886;55.034;73.150;2023-02-28T17:20:00;0.24;83.52
72762;SHT30;60886;55.034;73.150;2023-02-28T17:23:01;0.19;83.10
72762;SHT30;60886;55.034;73.150;2023-02-28T17:26:04;0.17;83.12
72762;SHT30;60886;55.034;73.150;2023-02-28T17:29:15;0.15;83.38
72762;SHT30;60886;55.034;73.150;2023-02-28T17:32:17;0.19;83.17
72762;SHT30;60886;55.034;73.150;2023-02-28T17:35:23;0.12;83.23
72762;SHT30;60886;55.034;73.150;2023-02-28T17:38:25;0.17;83.43
72762;SHT30;60886;55.034;73.150;2023-02-28T17:41:27;0.17;83.18
72762;SHT30;60886;55.034;73.150;2023-02-28T17:44:31;0.07;83.26
72762;SHT30;60886;55.034;73.150;2023-02-28T17:47:46;0.07;83.34
72762;SHT30;60886;55.034;73.150;2023-02-28T17:50:48;0.15;83.49
72762;SHT30;60886;55.034;73.150;2023-02-28T17:53:50;0.17;83.29
72762;SHT30;60886;55.034;73.150;2023-02-28T17:57:15;0.24;83.09
72762;SHT30;60886;55.034;73.150;2023-02-28T18:00:18;0.24;82.87
72762;SHT30;60886;55.034;73.150;2023-02-28T18:03:20;0.19;83.10
72762;SHT30;60886;55.034;73.150;2023-02-28T18:06:25;0.24;83.13
72762;SHT30;60886;55.034;73.150;2023-02-28T18:09:33;0.22;82.83
72762;SHT30;60886;55.034;73.150;2023-02-28T18:12:35;0.22;83.00
72762;SHT30;60886;55.034;73.150;2023-02-28T18:15:36;0.19;82.88
72762;SHT30;60886;55.034;73.150;2023-02-28T18:18:39;0.25;83.04
72762;SHT30;60886;55.034;73.150;2023-02-28T18:21:52;0.26;82.72
72762;SHT30;60886;55.034;73.150;2023-02-28T18:24:54;0.25;82.80
72762;SHT30;60886;55.034;73.150;2023-02-28T18:27:55;0.25;82.67
72762;SHT30;60886;55.034;73.150;2023-02-28T18:31:13;0.32;82.71
72762;SHT30;60886;55.034;73.150;2023-02-28T18:34:16;0.35;82.51
72762;SHT30;60886;55.034;73.150;2023-02-28T18:37:28;0.35;82.41
72762;SHT30;60886;55.034;73.150;2023-02-28T18:40:40;0.35;82.30
72762;SHT30;60886;55.034;73.150;2023-02-28T18:43:42;0.32;82.51
72762;SHT30;60886;55.034;73.150;2023-02-28T18:46:44;0.41;82.88
72762;SHT30;60886;55.034;73.150;2023-02-28T18:49:45;0.39;82.54
72762;SHT30;60886;55.034;73.150;2023-02-28T18:52:52;0.48;82.49
72762;SHT30;60886;55.034;73.150;2023-02-28T18:55:59;0.52;81.99
72762;SHT30;60886;55.034;73.150;2023-02-28T18:59:00;0.50;82.02
72762;SHT30;60886;55.034;73.150;2023-02-28T19:02:10;0.46;82.29
72762;SHT30;60886;55.034;73.150;2023-02-28T19:05:16;0.44;82.56
72762;SHT30;60886;55.034;73.150;2023-02-28T19:08:18;0.41;82.49
72762;SHT30;60886;55.034;73.150;2023-02-28T19:11:19;0.45;82.55
72762;SHT30;60886;55.034;73.150;2023-02-28T19:14:26;0.46;82.21
72762;SHT30;60886;55.034;73.150;2023-02-28T19:17:33;0.48;82.35
72762;SHT30;60886;55.034;73.150;2023-02-28T19:20:36;0.58;82.41
72762;SHT30;60886;55.034;73.150;2023-02-28T19:23:39;0.56;81.88
72762;SHT30;60886;55.034;73.150;2023-02-28T19:26:51;0.56;81.75
72762;SHT30;60886;55.034;73.150;2023-02-28T19:29:52;0.55;81.59
72762;SHT30;60886;55.034;73.150;2023-02-28T19:32:53;0.53;81.78
72762;SHT30;60886;55.034;73.150;2023-02-28T19:35:59;0.50;81.73
72762;SHT30;60886;55.034;73.150;2023-02-28T19:39:01;0.45;81.51
72762;SHT30;60886;55.034;73.150;2023-02-28T19:42:15;0.37;81.68
72762;SHT30;60886;55.034;73.150;2023-02-28T19:45:22;0.39;81.72
72762;SHT30;60886;55.034;73.150;2023-02-28T19:48:24;0.35;81.48
72762;SHT30;60886;55.034;73.150;2023-02-28T19:51:33;0.35;81.47
72762;SHT30;60886;55.034;73.150;2023-02-28T19:54:34;0.44;81.37
72762;SHT30;60886;55.034;73.150;2023-02-28T19:57:35;0.44;81.50
72762;SHT30;60886;55.034;73.150;2023-02-28T20:00:37;0.38;81.11
72762;SHT30;60886;55.034;73.150;2023-02-28T20:03:39;0.29;81.01
72762;SHT30;60886;55.034;73.150;2023-02-28T20:06:40;0.30;81.20
72762;SHT30;60886;55.034;73.150;2023-02-28T20:09:42;0.18;81.21
72762;SHT30;60886;55.034;73.150;2023-02-28T20:12:49;0.17;81.41
72762;SHT30;60886;55.034;73.150;2023-02-28T20:15:59;0.17;80.87
72762;SHT30;60886;55.034;73.150;2023-02-28T20:19:00;0.15;81.06
72762;SHT30;60886;55.034;73.150;2023-02-28T20:22:09;0.09;81.03
72762;SHT30;60886;55.034;73.150;2023-02-28T20:25:11;0.09;81.07
72762;SHT30;60886;55.034;73.150;2023-02-28T20:28:23;0.09;80.79
72762;SHT30;60886;55.034;73.150;2023-02-28T20:31:25;0.12;80.80
72762;SHT30;60886;55.034;73.150;2023-02-28T20:34:28;0.14;80.62
72762;SHT30;60886;55.034;73.150;2023-02-28T20:37:39;0.11;80.93
72762;SHT30;60886;55.034;73.150;2023-02-28T20:40:54;0.08;80.88
72762;SHT30;60886;55.034;73.150;2023-02-28T20:43:57;0.12;81.15
72762;SHT30;60886;55.034;73.150;2023-02-28T20:47:09;0.18;80.99
72762;SHT30;60886;55.034;73.150;2023-02-28T20:50:21;0.19;81.06
72762;SHT30;60886;55.034;73.150;2023-02-28T20:53:24;0.17;80.93
72762;SHT30;60886;55.034;73.150;2023-02-28T20:56:26;0.24;80.86
72762;SHT30;60886;55.034;73.150;2023-02-28T20:59:27;0.28;80.80
72762;SHT30;60886;55.034;73.150;2023-02-28T21:02:29;0.32;80.45
72762;SHT30;60886;55.034;73.150;2023-02-28T21:05:31;0.37;80.09
72762;SHT30;60886;55.034;73.150;2023-02-28T21:08:43;0.35;79.86
72762;SHT30;60886;55.034;73.150;2023-02-28T21:11:55;0.39;79.80
72762;SHT30;60886;55.034;73.150;2023-02-28T21:14:56;0.38;79.47
72762;SHT30;60886;55.034;73.150;2023-02-28T21:17:58;0.32;79.43
72762;SHT30;60886;55.034;73.150;2023-02-28T21:21:10;0.33;79.93
72762;SHT30;60886;55.034;73.150;2023-02-28T21:24:21;0.33;79.66
72762;SHT30;60886;55.034;73.150;2023-02-28T21:27:28;0.33;80.03
72762;SHT30;60886;55.034;73.150;2023-02-28T21:30:29;0.39;80.02
72762;SHT30;60886;55.034;73.150;2023-02-28T21:33:31;0.44;79.87
72762;SHT30;60886;55.034;73.150;2023-02-28T21:36:43;0.49;80.17
72762;SHT30;60886;55.034;73.150;2023-02-28T21:39:52;0.53;79.61
72762;SHT30;60886;55.034;73.150;2023-02-28T21:43:04;0.59;79.75
72762;SHT30;60886;55.034;73.150;2023-02-28T21:46:21;0.56;79.61
72762;SHT30;60886;55.034;73.150;2023-02-28T21:49:23;0.58;79.75
72762;SHT30;60886;55.034;73.150;2023-02-28T21:52:34;0.59;79.76